Terminal Aerodrome Forecast
Issued by NWS Memphis, TN

Home | Current Version | Previous Version | Text Only | Print | Product List | Glossary On
Versions: 1 2 3 4 5 6 7 8 9 10 11 12 13
000
FTUS44 KMEG 110522
TAFJBR
TAF
KJBR 110522Z 1106/1206 VRB03KT P6SM SKC
     FM111500 23009KT P6SM SKC
     FM111800 23015G23KT P6SM SKC
     FM120100 31011G18KT P6SM BKN200=

USA.gov is the U.S. government's official web portal to all federal, state and local government web resources and services.